sensor_id;sensor_type;location;lat;lon;timestamp;P1;P2;P0
62599;PMS7003;48671;48.922;2.346;2024-01-16T00:01:51;70.00;54.00;36.00
62599;PMS7003;48671;48.922;2.346;2024-01-16T00:04:16;67.67;51.33;36.33
62599;PMS7003;48671;48.922;2.346;2024-01-16T00:06:41;71.00;52.00;36.00
62599;PMS7003;48671;48.922;2.346;2024-01-16T00:09:07;75.00;57.25;39.00
62599;PMS7003;48671;48.922;2.346;2024-01-16T00:11:39;71.25;52.50;38.00
62599;PMS7003;48671;48.922;2.346;2024-01-16T00:14:05;73.00;56.25;39.25
62599;PMS7003;48671;48.922;2.346;2024-01-16T00:16:30;76.67;57.67;40.00
62599;PMS7003;48671;48.922;2.346;2024-01-16T00:18:55;77.00;57.67;42.00
62599;PMS7003;48671;48.922;2.346;2024-01-16T00:21:21;75.00;57.67;40.00
62599;PMS7003;48671;48.922;2.346;2024-01-16T00:23:46;68.33;53.33;39.67
62599;PMS7003;48671;48.922;2.346;2024-01-16T00:26:21;70.00;54.33;39.00
62599;PMS7003;48671;48.922;2.346;2024-01-16T00:28:47;73.00;57.25;40.00
62599;PMS7003;48671;48.922;2.346;2024-01-16T00:31:13;67.50;50.25;37.00
62599;PMS7003;48671;48.922;2.346;2024-01-16T00:33:38;72.25;58.00;39.00
62599;PMS7003;48671;48.922;2.346;2024-01-16T00:36:04;73.50;56.00;39.00
62599;PMS7003;48671;48.922;2.346;2024-01-16T00:38:32;76.25;57.00;39.00
62599;PMS7003;48671;48.922;2.346;2024-01-16T00:40:58;85.75;63.75;42.00
62599;PMS7003;48671;48.922;2.346;2024-01-16T00:43:23;73.33;56.33;41.33
62599;PMS7003;48671;48.922;2.346;2024-01-16T00:45:48;75.00;58.00;40.00
62599;PMS7003;48671;48.922;2.346;2024-01-16T00:48:14;83.25;64.25;42.75
62599;PMS7003;48671;48.922;2.346;2024-01-16T00:50:39;77.33;58.67;42.00
62599;PMS7003;48671;48.922;2.346;2024-01-16T00:53:04;68.00;53.33;39.67
62599;PMS7003;48671;48.922;2.346;2024-01-16T00:55:30;83.50;63.00;42.00
62599;PMS7003;48671;48.922;2.346;2024-01-16T00:57:55;79.00;59.33;42.33
62599;PMS7003;48671;48.922;2.346;2024-01-16T01:00:20;92.33;69.67;46.67
62599;PMS7003;48671;48.922;2.346;2024-01-16T01:02:46;86.00;67.33;46.00
62599;PMS7003;48671;48.922;2.346;2024-01-16T01:05:11;84.67;63.00;42.33
62599;PMS7003;48671;48.922;2.346;2024-01-16T01:07:37;92.25;66.00;45.25
62599;PMS7003;48671;48.922;2.346;2024-01-16T01:10:03;88.75;63.75;42.50
62599;PMS7003;48671;48.922;2.346;2024-01-16T01:12:28;95.75;69.25;46.50
62599;PMS7003;48671;48.922;2.346;2024-01-16T01:14:53;81.33;61.67;42.00
62599;PMS7003;48671;48.922;2.346;2024-01-16T01:17:19;78.25;60.25;42.00
62599;PMS7003;48671;48.922;2.346;2024-01-16T01:19:45;83.33;60.67;41.33
62599;PMS7003;48671;48.922;2.346;2024-01-16T01:22:11;78.50;61.50;43.00
62599;PMS7003;48671;48.922;2.346;2024-01-16T01:24:36;82.00;64.67;42.33
62599;PMS7003;48671;48.922;2.346;2024-01-16T01:27:02;78.00;57.67;40.67
62599;PMS7003;48671;48.922;2.346;2024-01-16T01:29:27;88.50;66.00;45.00
62599;PMS7003;48671;48.922;2.346;2024-01-16T01:31:52;78.67;61.67;42.67
62599;PMS7003;48671;48.922;2.346;2024-01-16T01:34:18;82.00;61.67;42.00
62599;PMS7003;48671;48.922;2.346;2024-01-16T01:36:43;88.33;63.33;43.67
62599;PMS7003;48671;48.922;2.346;2024-01-16T01:39:08;38.67;27.67;25.67
62599;PMS7003;48671;48.922;2.346;2024-01-16T01:41:35;85.75;63.75;43.50
62599;PMS7003;48671;48.922;2.346;2024-01-16T01:44:01;82.50;63.00;42.50
62599;PMS7003;48671;48.922;2.346;2024-01-16T01:46:26;85.33;66.00;43.00
62599;PMS7003;48671;48.922;2.346;2024-01-16T01:48:52;85.25;64.50;43.00
62599;PMS7003;48671;48.922;2.346;2024-01-16T01:51:18;79.75;61.75;42.75
62599;PMS7003;48671;48.922;2.346;2024-01-16T01:53:44;76.00;60.00;42.00
62599;PMS7003;48671;48.922;2.346;2024-01-16T01:56:10;79.25;64.50;43.50
62599;PMS7003;48671;48.922;2.346;2024-01-16T01:58:38;80.00;63.00;44.00
62599;PMS7003;48671;48.922;2.346;2024-01-16T02:01:06;82.25;63.50;42.25
62599;PMS7003;48671;48.922;2.346;2024-01-16T02:03:40;84.25;64.00;44.50
62599;PMS7003;48671;48.922;2.346;2024-01-16T02:06:08;82.00;63.75;42.75
62599;PMS7003;48671;48.922;2.346;2024-01-16T02:08:34;78.25;62.75;42.25
62599;PMS7003;48671;48.922;2.346;2024-01-16T02:11:00;81.50;62.75;42.75
62599;PMS7003;48671;48.922;2.346;2024-01-16T02:13:25;83.33;63.00;42.67
62599;PMS7003;48671;48.922;2.346;2024-01-16T02:15:50;93.33;67.00;45.33
62599;PMS7003;48671;48.922;2.346;2024-01-16T02:18:16;80.00;65.50;43.50
62599;PMS7003;48671;48.922;2.346;2024-01-16T02:20:42;90.00;66.25;45.75
62599;PMS7003;48671;48.922;2.346;2024-01-16T02:23:08;76.50;60.75;42.00
62599;PMS7003;48671;48.922;2.346;2024-01-16T02:25:35;83.00;61.25;40.25
62599;PMS7003;48671;48.922;2.346;2024-01-16T02:28:01;79.25;64.00;42.00
62599;PMS7003;48671;48.922;2.346;2024-01-16T02:30:28;86.00;66.00;43.00
62599;PMS7003;48671;48.922;2.346;2024-01-16T02:32:53;84.67;63.00;42.00
62599;PMS7003;48671;48.922;2.346;2024-01-16T02:35:18;85.00;63.67;43.00
62599;PMS7003;48671;48.922;2.346;2024-01-16T02:37:44;78.25;57.50;42.25
62599;PMS7003;48671;48.922;2.346;2024-01-16T02:40:09;82.00;61.67;42.00
62599;PMS7003;48671;48.922;2.346;2024-01-16T02:42:35;80.25;63.00;42.00
62599;PMS7003;48671;48.922;2.346;2024-01-16T02:45:02;80.25;60.75;42.75
62599;PMS7003;48671;48.922;2.346;2024-01-16T02:47:29;79.25;58.25;39.25
62599;PMS7003;48671;48.922;2.346;2024-01-16T02:49:54;80.00;60.50;41.00
62599;PMS7003;48671;48.922;2.346;2024-01-16T02:52:20;76.75;60.00;41.50
62599;PMS7003;48671;48.922;2.346;2024-01-16T02:54:45;80.50;60.25;42.00
62599;PMS7003;48671;48.922;2.346;2024-01-16T02:57:11;74.00;55.00;39.00
62599;PMS7003;48671;48.922;2.346;2024-01-16T02:59:36;74.67;59.00;38.00
62599;PMS7003;48671;48.922;2.346;2024-01-16T03:02:01;84.33;61.67;39.67
62599;PMS7003;48671;48.922;2.346;2024-01-16T03:04:27;70.75;55.50;39.25
62599;PMS7003;48671;48.922;2.346;2024-01-16T03:06:53;77.25;57.25;38.50
62599;PMS7003;48671;48.922;2.346;2024-01-16T03:09:19;71.50;53.00;35.00
62599;PMS7003;48671;48.922;2.346;2024-01-16T03:11:44;73.67;54.33;36.67
62599;PMS7003;48671;48.922;2.346;2024-01-16T03:14:10;71.00;57.00;39.33
62599;PMS7003;48671;48.922;2.346;2024-01-16T03:16:35;76.33;57.67;37.67
62599;PMS7003;48671;48.922;2.346;2024-01-16T03:19:00;67.00;51.33;36.00
62599;PMS7003;48671;48.922;2.346;2024-01-16T03:21:26;66.67;51.33;34.00
62599;PMS7003;48671;48.922;2.346;2024-01-16T03:23:51;76.25;55.00;39.25
62599;PMS7003;48671;48.922;2.346;2024-01-16T03:26:16;74.67;55.33;37.33
62599;PMS7003;48671;48.922;2.346;2024-01-16T03:28:42;75.00;57.75;41.50
62599;PMS7003;48671;48.922;2.346;2024-01-16T03:31:07;69.00;54.75;39.25
62599;PMS7003;48671;48.922;2.346;2024-01-16T03:33:33;70.00;58.00;40.00
62599;PMS7003;48671;48.922;2.346;2024-01-16T03:35:59;74.50;53.00;38.00
62599;PMS7003;48671;48.922;2.346;2024-01-16T03:38:25;64.75;51.50;36.00
62599;PMS7003;48671;48.922;2.346;2024-01-16T03:40:50;70.25;52.50;36.25
62599;PMS7003;48671;48.922;2.346;2024-01-16T03:43:16;66.75;52.50;36.00
62599;PMS7003;48671;48.922;2.346;2024-01-16T03:45:42;68.75;53.50;37.00
62599;PMS7003;48671;48.922;2.346;2024-01-16T03:48:07;67.00;51.00;36.00
62599;PMS7003;48671;48.922;2.346;2024-01-16T03:50:33;70.25;56.00;38.50
62599;PMS7003;48671;48.922;2.346;2024-01-16T03:52:59;72.25;54.00;37.75
62599;PMS7003;48671;48.922;2.346;2024-01-16T03:55:24;68.00;56.33;39.00
62599;PMS7003;48671;48.922;2.346;2024-01-16T03:57:49;72.67;53.33;36.00
62599;PMS7003;48671;48.922;2.346;2024-01-16T04:00:16;73.25;53.75;37.50
62599;PMS7003;48671;48.922;2.346;2024-01-16T04:02:41;42.00;32.50;17.25
62599;PMS7003;48671;48.922;2.346;2024-01-16T04:05:07;74.75;58.00;39.75
62599;PMS7003;48671;48.922;2.346;2024-01-16T04:07:33;70.25;57.25;36.50
62599;PMS7003;48671;48.922;2.346;2024-01-16T04:09:58;79.00;58.00;40.00
62599;PMS7003;48671;48.922;2.346;2024-01-16T04:12:23;77.33;57.00;39.00
62599;PMS7003;48671;48.922;2.346;2024-01-16T04:14:49;71.25;54.25;37.50
62599;PMS7003;48671;48.922;2.346;2024-01-16T04:17:14;76.33;57.33;37.67
62599;PMS7003;48671;48.922;2.346;2024-01-16T04:19:39;64.67;53.33;36.00
62599;PMS7003;48671;48.922;2.346;2024-01-16T04:22:05;74.33;57.67;39.33
62599;PMS7003;48671;48.922;2.346;2024-01-16T04:24:30;66.50;50.75;36.75
62599;PMS7003;48671;48.922;2.346;2024-01-16T04:26:56;74.50;55.25;35.50
62599;PMS7003;48671;48.922;2.346;2024-01-16T04:29:21;70.00;52.00;36.33
62599;PMS7003;48671;48.922;2.346;2024-01-16T04:31:47;69.50;53.00;36.75
62599;PMS7003;48671;48.922;2.346;2024-01-16T04:34:12;75.25;54.50;39.00
62599;PMS7003;48671;48.922;2.346;2024-01-16T04:36:38;74.50;58.50;40.50
62599;PMS7003;48671;48.922;2.346;2024-01-16T04:39:03;79.00;57.67;39.33
62599;PMS7003;48671;48.922;2.346;2024-01-16T04:41:28;72.67;58.00;40.00
62599;PMS7003;48671;48.922;2.346;2024-01-16T04:43:54;76.25;54.75;39.00
62599;PMS7003;48671;48.922;2.346;2024-01-16T04:46:20;76.75;56.00;39.00
62599;PMS7003;48671;48.922;2.346;2024-01-16T04:48:45;72.67;54.67;38.33
62599;PMS7003;48671;48.922;2.346;2024-01-16T04:51:10;64.67;49.67;33.33
62599;PMS7003;48671;48.922;2.346;2024-01-16T04:53:35;77.33;54.00;39.33
62599;PMS7003;48671;48.922;2.346;2024-01-16T04:56:01;76.00;54.00;37.00
62599;PMS7003;48671;48.922;2.346;2024-01-16T04:58:27;83.50;59.25;40.50
62599;PMS7003;48671;48.922;2.346;2024-01-16T05:00:52;74.00;58.00;39.25
62599;PMS7003;48671;48.922;2.346;2024-01-16T05:03:18;80.00;60.33;42.00
62599;PMS7003;48671;48.922;2.346;2024-01-16T05:05:43;73.00;57.00;39.00
62599;PMS7003;48671;48.922;2.346;2024-01-16T05:08:09;78.50;61.00;39.25
62599;PMS7003;48671;48.922;2.346;2024-01-16T05:10:34;79.67;63.00;42.00
62599;PMS7003;48671;48.922;2.346;2024-01-16T05:12:59;76.50;58.00;39.25
62599;PMS7003;48671;48.922;2.346;2024-01-16T05:15:25;85.75;60.00;40.50
62599;PMS7003;48671;48.922;2.346;2024-01-16T05:17:50;65.25;49.00;34.50
62599;PMS7003;48671;48.922;2.346;2024-01-16T05:20:15;73.67;57.67;38.33
62599;PMS7003;48671;48.922;2.346;2024-01-16T05:22:41;68.50;52.25;33.50
62599;PMS7003;48671;48.922;2.346;2024-01-16T05:25:06;71.33;56.00;36.33
62599;PMS7003;48671;48.922;2.346;2024-01-16T05:27:32;77.00;58.25;40.00
62599;PMS7003;48671;48.922;2.346;2024-01-16T05:29:58;72.00;54.75;38.50
62599;PMS7003;48671;48.922;2.346;2024-01-16T05:32:23;77.33;59.33;42.00
62599;PMS7003;48671;48.922;2.346;2024-01-16T05:34:49;74.50;57.25;40.00
62599;PMS7003;48671;48.922;2.346;2024-01-16T05:37:15;79.50;60.75;40.00
62599;PMS7003;48671;48.922;2.346;2024-01-16T05:39:40;74.00;57.25;38.50
62599;PMS7003;48671;48.922;2.346;2024-01-16T05:42:06;76.25;53.00;34.00
62599;PMS7003;48671;48.922;2.346;2024-01-16T05:44:31;76.50;58.00;41.00
62599;PMS7003;48671;48.922;2.346;2024-01-16T05:46:56;78.00;57.33;39.00
62599;PMS7003;48671;48.922;2.346;2024-01-16T05:49:22;69.33;57.33;39.00
62599;PMS7003;48671;48.922;2.346;2024-01-16T05:51:47;78.33;59.67;39.67
62599;PMS7003;48671;48.922;2.346;2024-01-16T05:54:12;68.33;54.67;39.67
62599;PMS7003;48671;48.922;2.346;2024-01-16T05:56:38;78.00;56.33;40.00
62599;PMS7003;48671;48.922;2.346;2024-01-16T05:59:03;73.50;55.50;40.00
62599;PMS7003;48671;48.922;2.346;2024-01-16T06:01:29;77.25;58.00;41.00
62599;PMS7003;48671;48.922;2.346;2024-01-16T06:03:54;76.33;57.33;38.33
62599;PMS7003;48671;48.922;2.346;2024-01-16T06:06:20;71.50;54.50;36.00
62599;PMS7003;48671;48.922;2.346;2024-01-16T06:08:45;67.00;49.00;33.67
62599;PMS7003;48671;48.922;2.346;2024-01-16T06:11:10;65.33;53.33;39.67
62599;PMS7003;48671;48.922;2.346;2024-01-16T06:13:36;77.25;57.50;40.00
62599;PMS7003;48671;48.922;2.346;2024-01-16T06:16:01;67.75;53.50;35.50
62599;PMS7003;48671;48.922;2.346;2024-01-16T06:18:28;71.00;53.00;35.50
62599;PMS7003;48671;48.922;2.346;2024-01-16T06:20:53;83.50;59.00;41.50
62599;PMS7003;48671;48.922;2.346;2024-01-16T06:23:18;79.00;57.00;40.00
62599;PMS7003;48671;48.922;2.346;2024-01-16T06:25:44;79.00;57.67;41.33
62599;PMS7003;48671;48.922;2.346;2024-01-16T06:28:09;72.67;56.00;37.67
62599;PMS7003;48671;48.922;2.346;2024-01-16T06:30:34;78.33;57.67;40.00
62599;PMS7003;48671;48.922;2.346;2024-01-16T06:32:59;75.33;58.00;40.67
62599;PMS7003;48671;48.922;2.346;2024-01-16T06:35:25;78.75;57.50;39.00
62599;PMS7003;48671;48.922;2.346;2024-01-16T06:37:50;68.25;54.25;38.25
62599;PMS7003;48671;48.922;2.346;2024-01-16T06:40:16;67.50;54.00;38.00
62599;PMS7003;48671;48.922;2.346;2024-01-16T06:42:41;62.67;51.67;36.67
62599;PMS7003;48671;48.922;2.346;2024-01-16T06:45:07;75.00;56.00;39.00
62599;PMS7003;48671;48.922;2.346;2024-01-16T06:47:32;73.25;56.50;39.50
62599;PMS7003;48671;48.922;2.346;2024-01-16T06:49:58;69.75;54.50;35.50
62599;PMS7003;48671;48.922;2.346;2024-01-16T06:52:23;72.75;53.75;39.50
62599;PMS7003;48671;48.922;2.346;2024-01-16T06:54:49;72.25;54.00;37.50
62599;PMS7003;48671;48.922;2.346;2024-01-16T06:57:15;68.75;54.25;36.25
62599;PMS7003;48671;48.922;2.346;2024-01-16T06:59:40;62.67;45.67;31.33
62599;PMS7003;48671;48.922;2.346;2024-01-16T07:02:05;56.33;47.33;33.00
62599;PMS7003;48671;48.922;2.346;2024-01-16T07:04:31;64.50;51.00;35.25
62599;PMS7003;48671;48.922;2.346;2024-01-16T07:06:57;73.25;54.50;38.50
62599;PMS7003;48671;48.922;2.346;2024-01-16T07:09:24;74.50;57.00;39.00
62599;PMS7003;48671;48.922;2.346;2024-01-16T07:11:49;65.00;52.25;39.00
62599;PMS7003;48671;48.922;2.346;2024-01-16T07:14:15;72.67;53.33;38.33
62599;PMS7003;48671;48.922;2.346;2024-01-16T07:16:40;57.67;51.33;36.00
62599;PMS7003;48671;48.922;2.346;2024-01-16T07:19:05;69.50;53.50;35.50
62599;PMS7003;48671;48.922;2.346;2024-01-16T07:21:31;71.00;56.50;38.50
62599;PMS7003;48671;48.922;2.346;2024-01-16T07:23:56;68.00;51.25;34.00
62599;PMS7003;48671;48.922;2.346;2024-01-16T07:26:22;54.75;50.50;38.00
62599;PMS7003;48671;48.922;2.346;2024-01-16T07:28:48;67.00;54.00;35.50
62599;PMS7003;48671;48.922;2.346;2024-01-16T07:31:14;76.00;56.75;39.75
62599;PMS7003;48671;48.922;2.346;2024-01-16T07:33:41;69.50;53.00;37.75
62599;PMS7003;48671;48.922;2.346;2024-01-16T07:36:07;64.50;48.00;34.50
62599;PMS7003;48671;48.922;2.346;2024-01-16T07:38:33;75.50;58.75;40.25
62599;PMS7003;48671;48.922;2.346;2024-01-16T07:40:59;81.75;59.25;39.50
62599;PMS7003;48671;48.922;2.346;2024-01-16T07:43:24;57.00;51.75;40.00
62599;PMS7003;48671;48.922;2.346;2024-01-16T07:45:50;69.50;54.75;36.00
62599;PMS7003;48671;48.922;2.346;2024-01-16T07:48:15;72.75;55.00;38.00
62599;PMS7003;48671;48.922;2.346;2024-01-16T07:50:41;73.67;56.00;38.00
62599;PMS7003;48671;48.922;2.346;2024-01-16T07:53:06;67.50;50.50;36.00
62599;PMS7003;48671;48.922;2.346;2024-01-16T07:55:31;73.25;52.00;37.50
62599;PMS7003;48671;48.922;2.346;2024-01-16T07:57:57;67.00;51.75;36.50
62599;PMS7003;48671;48.922;2.346;2024-01-16T08:00:22;74.33;54.00;39.00
62599;PMS7003;48671;48.922;2.346;2024-01-16T08:02:47;70.67;56.33;38.33
62599;PMS7003;48671;48.922;2.346;2024-01-16T08:05:13;77.25;59.25;39.75
62599;PMS7003;48671;48.922;2.346;2024-01-16T08:07:39;71.25;53.25;35.00
62599;PMS7003;48671;48.922;2.346;2024-01-16T08:10:08;72.75;55.00;39.00
62599;PMS7003;48671;48.922;2.346;2024-01-16T08:12:33;74.50;55.00;39.00
62599;PMS7003;48671;48.922;2.346;2024-01-16T08:14:59;77.00;56.33;39.33
62599;PMS7003;48671;48.922;2.346;2024-01-16T08:17:24;69.00;54.33;36.00
62599;PMS7003;48671;48.922;2.346;2024-01-16T08:19:49;70.67;54.00;36.00
62599;PMS7003;48671;48.922;2.346;2024-01-16T08:22:15;58.00;45.00;34.00
62599;PMS7003;48671;48.922;2.346;2024-01-16T08:24:40;69.00;53.33;36.33
62599;PMS7003;48671;48.922;2.346;2024-01-16T08:27:05;54.33;49.67;39.67
62599;PMS7003;48671;48.922;2.346;2024-01-16T08:29:30;79.67;63.00;42.67
62599;PMS7003;48671;48.922;2.346;2024-01-16T08:31:56;80.33;60.33;42.00
62599;PMS7003;48671;48.922;2.346;2024-01-16T08:34:21;79.67;64.67;42.00
62599;PMS7003;48671;48.922;2.346;2024-01-16T08:36:46;85.00;64.00;45.00
62599;PMS7003;48671;48.922;2.346;2024-01-16T08:39:12;79.67;62.33;42.00
62599;PMS7003;48671;48.922;2.346;2024-01-16T08:41:37;79.67;58.00;39.00
62599;PMS7003;48671;48.922;2.346;2024-01-16T08:44:02;83.67;61.67;43.00
62599;PMS7003;48671;48.922;2.346;2024-01-16T08:46:29;74.25;57.75;40.00
62599;PMS7003;48671;48.922;2.346;2024-01-16T08:48:54;84.33;64.67;43.00
62599;PMS7003;48671;48.922;2.346;2024-01-16T08:51:19;72.67;58.67;42.00
62599;PMS7003;48671;48.922;2.346;2024-01-16T08:53:45;88.50;66.75;43.00
62599;PMS7003;48671;48.922;2.346;2024-01-16T08:56:11;79.00;62.25;40.50
62599;PMS7003;48671;48.922;2.346;2024-01-16T08:58:37;80.75;62.00;41.00
62599;PMS7003;48671;48.922;2.346;2024-01-16T09:01:06;76.50;61.50;44.00
62599;PMS7003;48671;48.922;2.346;2024-01-16T09:03:32;84.25;61.50;42.00
62599;PMS7003;48671;48.922;2.346;2024-01-16T09:05:58;49.00;26.50;4.00
62599;PMS7003;48671;48.922;2.346;2024-01-16T09:08:23;82.67;62.33;43.00
62599;PMS7003;48671;48.922;2.346;2024-01-16T09:10:48;78.50;60.25;40.50
62599;PMS7003;48671;48.922;2.346;2024-01-16T09:13:13;78.00;61.00;42.00
62599;PMS7003;48671;48.922;2.346;2024-01-16T09:15:39;81.75;59.50;40.50
62599;PMS7003;48671;48.922;2.346;2024-01-16T09:18:04;76.00;61.00;40.00
62599;PMS7003;48671;48.922;2.346;2024-01-16T09:20:30;75.25;60.25;42.00
62599;PMS7003;48671;48.922;2.346;2024-01-16T09:22:56;88.50;62.50;42.25
62599;PMS7003;48671;48.922;2.346;2024-01-16T09:25:21;86.00;65.33;44.33
62599;PMS7003;48671;48.922;2.346;2024-01-16T09:27:49;84.00;63.25;43.00
62599;PMS7003;48671;48.922;2.346;2024-01-16T09:30:15;80.00;61.00;40.00
62599;PMS7003;48671;48.922;2.346;2024-01-16T09:32:41;84.00;61.50;44.50
62599;PMS7003;48671;48.922;2.346;2024-01-16T09:35:07;79.00;60.50;41.00
62599;PMS7003;48671;48.922;2.346;2024-01-16T09:37:34;90.25;62.50;42.25
62599;PMS7003;48671;48.922;2.346;2024-01-16T09:40:00;87.25;66.75;46.00
62599;PMS7003;48671;48.922;2.346;2024-01-16T09:42:25;90.00;66.25;45.00
62599;PMS7003;48671;48.922;2.346;2024-01-16T09:44:50;88.00;67.50;46.00
62599;PMS7003;48671;48.922;2.346;2024-01-16T09:47:17;87.25;64.25;42.00
62599;PMS7003;48671;48.922;2.346;2024-01-16T09:49:42;90.50;64.00;45.25
62599;PMS7003;48671;48.922;2.346;2024-01-16T09:52:12;85.50;64.50;43.00
62599;PMS7003;48671;48.922;2.346;2024-01-16T09:54:37;93.25;70.00;46.50
62599;PMS7003;48671;48.922;2.346;2024-01-16T09:57:02;92.00;64.00;45.00
62599;PMS7003;48671;48.922;2.346;2024-01-16T09:59:31;83.00;62.50;42.00
62599;PMS7003;48671;48.922;2.346;2024-01-16T10:01:59;86.50;66.00;43.00
62599;PMS7003;48671;48.922;2.346;2024-01-16T10:04:26;88.50;69.25;46.00
62599;PMS7003;48671;48.922;2.346;2024-01-16T10:06:52;80.75;63.50;44.25
62599;PMS7003;48671;48.922;2.346;2024-01-16T10:09:20;85.50;65.00;45.00
62599;PMS7003;48671;48.922;2.346;2024-01-16T10:11:46;86.00;65.00;45.25
62599;PMS7003;48671;48.922;2.346;2024-01-16T10:14:12;91.00;69.75;46.00
62599;PMS7003;48671;48.922;2.346;2024-01-16T10:19:23;89.25;69.50;47.00
62599;PMS7003;48671;48.922;2.346;2024-01-16T10:21:48;93.50;72.75;48.50
62599;PMS7003;48671;48.922;2.346;2024-01-16T10:24:14;95.00;73.75;51.00
62599;PMS7003;48671;48.922;2.346;2024-01-16T10:26:39;91.33;70.33;48.00
62599;PMS7003;48671;48.922;2.346;2024-01-16T10:29:04;94.67;72.00;48.00
62599;PMS7003;48671;48.922;2.346;2024-01-16T10:31:30;90.67;70.00;48.00
62599;PMS7003;48671;48.922;2.346;2024-01-16T10:33:56;95.25;71.50;48.50
62599;PMS7003;48671;48.922;2.346;2024-01-16T10:36:23;102.50;75.25;51.00
62599;PMS7003;48671;48.922;2.346;2024-01-16T10:38:50;91.75;68.50;46.00
62599;PMS7003;48671;48.922;2.346;2024-01-16T10:41:22;101.00;72.00;49.00
62599;PMS7003;48671;48.922;2.346;2024-01-16T10:43:50;95.75;72.00;49.25
62599;PMS7003;48671;48.922;2.346;2024-01-16T10:46:29;101.50;74.00;49.25
62599;PMS7003;48671;48.922;2.346;2024-01-16T10:49:01;100.33;72.33;50.00
62599;PMS7003;48671;48.922;2.346;2024-01-16T10:51:28;91.50;70.50;49.75
62599;PMS7003;48671;48.922;2.346;2024-01-16T10:54:04;86.75;67.25;47.00
62599;PMS7003;48671;48.922;2.346;2024-01-16T10:56:35;92.00;72.00;49.75
62599;PMS7003;48671;48.922;2.346;2024-01-16T11:01:51;95.50;72.00;49.25
62599;PMS7003;48671;48.922;2.346;2024-01-16T11:04:21;98.25;74.25;49.50
62599;PMS7003;48671;48.922;2.346;2024-01-16T11:06:47;94.00;72.25;49.25
62599;PMS7003;48671;48.922;2.346;2024-01-16T11:09:16;105.50;74.75;50.50
62599;PMS7003;48671;48.922;2.346;2024-01-16T11:11:43;90.00;70.00;47.50
62599;PMS7003;48671;48.922;2.346;2024-01-16T11:14:11;96.25;72.50;49.75
62599;PMS7003;48671;48.922;2.346;2024-01-16T11:16:38;99.00;71.25;48.50
62599;PMS7003;48671;48.922;2.346;2024-01-16T11:19:05;91.00;71.75;48.25
62599;PMS7003;48671;48.922;2.346;2024-01-16T11:21:33;58.00;40.75;17.00
62599;PMS7003;48671;48.922;2.346;2024-01-16T11:24:01;93.00;69.25;46.00
62599;PMS7003;48671;48.922;2.346;2024-01-16T11:28:54;96.00;71.75;47.50
62599;PMS7003;48671;48.922;2.346;2024-01-16T11:31:27;82.25;61.25;43.25
62599;PMS7003;48671;48.922;2.346;2024-01-16T11:33:54;86.00;64.50;42.75
62599;PMS7003;48671;48.922;2.346;2024-01-16T11:39:23;86.25;65.00;44.50
62599;PMS7003;48671;48.922;2.346;2024-01-16T11:41:56;88.00;65.75;44.50
62599;PMS7003;48671;48.922;2.346;2024-01-16T11:47:08;89.00;65.50;46.00
62599;PMS7003;48671;48.922;2.346;2024-01-16T11:49:36;79.50;64.25;43.00
62599;PMS7003;48671;48.922;2.346;2024-01-16T11:52:01;86.50;65.00;45.00
62599;PMS7003;48671;48.922;2.346;2024-01-16T11:54:27;55.00;35.25;23.75
62599;PMS7003;48671;48.922;2.346;2024-01-16T11:57:01;81.25;61.25;41.25
62599;PMS7003;48671;48.922;2.346;2024-01-16T12:02:26;81.25;62.25;41.50
62599;PMS7003;48671;48.922;2.346;2024-01-16T12:04:59;84.00;62.25;43.00
62599;PMS7003;48671;48.922;2.346;2024-01-16T12:07:28;78.25;58.50;41.25
62599;PMS7003;48671;48.922;2.346;2024-01-16T12:09:58;82.00;63.00;42.75
62599;PMS7003;48671;48.922;2.346;2024-01-16T12:12:25;73.75;58.00;42.00
62599;PMS7003;48671;48.922;2.346;2024-01-16T12:14:51;80.75;61.50;40.75
62599;PMS7003;48671;48.922;2.346;2024-01-16T12:17:19;73.25;59.50;40.00
62599;PMS7003;48671;48.922;2.346;2024-01-16T12:19:45;83.00;60.50;41.25
62599;PMS7003;48671;48.922;2.346;2024-01-16T12:22:14;78.25;56.50;39.50
62599;PMS7003;48671;48.922;2.346;2024-01-16T12:24:39;80.50;61.50;40.50
62599;PMS7003;48671;48.922;2.346;2024-01-16T12:27:05;76.50;57.00;38.50
62599;PMS7003;48671;48.922;2.346;2024-01-16T12:29:30;70.00;52.25;35.25
62599;PMS7003;48671;48.922;2.346;2024-01-16T12:32:07;82.00;56.75;41.00
62599;PMS7003;48671;48.922;2.346;2024-01-16T12:34:46;79.25;59.50;40.00
62599;PMS7003;48671;48.922;2.346;2024-01-16T12:37:12;82.50;61.00;40.75
62599;PMS7003;48671;48.922;2.346;2024-01-16T12:39:38;78.50;58.75;39.25
62599;PMS7003;48671;48.922;2.346;2024-01-16T12:42:06;74.25;55.50;38.00
62599;PMS7003;48671;48.922;2.346;2024-01-16T12:44:34;73.50;56.75;39.25
62599;PMS7003;48671;48.922;2.346;2024-01-16T12:47:00;78.00;58.25;41.00
62599;PMS7003;48671;48.922;2.346;2024-01-16T12:49:27;71.00;52.75;37.50
62599;PMS7003;48671;48.922;2.346;2024-01-16T12:52:14;66.75;51.50;38.25
62599;PMS7003;48671;48.922;2.346;2024-01-16T12:54:45;71.75;51.50;35.00
62599;PMS7003;48671;48.922;2.346;2024-01-16T12:57:21;72.50;57.00;41.00
62599;PMS7003;48671;48.922;2.346;2024-01-16T12:59:47;70.75;54.75;36.50
62599;PMS7003;48671;48.922;2.346;2024-01-16T13:02:22;64.75;51.25;35.75
62599;PMS7003;48671;48.922;2.346;2024-01-16T13:04:56;66.50;52.25;37.00
62599;PMS7003;48671;48.922;2.346;2024-01-16T13:07:23;73.00;54.50;38.50
62599;PMS7003;48671;48.922;2.346;2024-01-16T13:09:49;64.25;49.50;34.00
62599;PMS7003;48671;48.922;2.346;2024-01-16T13:12:21;68.50;54.75;38.50
62599;PMS7003;48671;48.922;2.346;2024-01-16T13:14:46;64.00;48.25;33.75
62599;PMS7003;48671;48.922;2.346;2024-01-16T13:17:11;64.67;51.00;35.00
62599;PMS7003;48671;48.922;2.346;2024-01-16T13:19:37;59.33;44.00;29.00
62599;PMS7003;48671;48.922;2.346;2024-01-16T13:22:02;64.67;44.33;32.00
62599;PMS7003;48671;48.922;2.346;2024-01-16T13:24:29;59.50;48.50;32.25
62599;PMS7003;48671;48.922;2.346;2024-01-16T13:26:54;55.67;44.67;32.00
62599;PMS7003;48671;48.922;2.346;2024-01-16T13:29:19;56.00;47.00;33.33
62599;PMS7003;48671;48.922;2.346;2024-01-16T13:31:45;75.33;60.33;44.00
62599;PMS7003;48671;48.922;2.346;2024-01-16T13:34:10;54.33;45.33;30.00
62599;PMS7003;48671;48.922;2.346;2024-01-16T13:36:35;45.25;40.50;28.50
62599;PMS7003;48671;48.922;2.346;2024-01-16T13:39:01;30.75;29.00;23.50
62599;PMS7003;48671;48.922;2.346;2024-01-16T13:41:26;87.67;57.00;35.00
62599;PMS7003;48671;48.922;2.346;2024-01-16T13:43:52;62.75;50.50;33.50
62599;PMS7003;48671;48.922;2.346;2024-01-16T13:46:17;62.67;45.67;30.33
62599;PMS7003;48671;48.922;2.346;2024-01-16T13:48:43;53.00;46.33;31.67
62599;PMS7003;48671;48.922;2.346;2024-01-16T13:51:10;39.25;38.00;31.00
62599;PMS7003;48671;48.922;2.346;2024-01-16T13:53:35;45.75;37.75;29.00
62599;PMS7003;48671;48.922;2.346;2024-01-16T13:56:00;30.00;24.75;20.75
62599;PMS7003;48671;48.922;2.346;2024-01-16T13:58:26;44.67;40.00;27.67